Hovedside
METAR-TAF:

METAR-TAF

Lufthavner :

Linköping, Sverige

Flystasjon

breddegrad: 58-24N, lengdegrad: 015-31E, høyde over havet: 93 m

Gjeldene værobservasjon

Denne rapporten ble laget for 26 minutter siden, klokken 04:20 UTC
Vind 16 kt fra Sør-sørvest
Temperatur 1°C
Luftfuktighet 86%
Trykk 991 hPa
Sikt 10 km eller mer
Få skyer i en høyde av 3000 ft
Spredte skyer i en høyde av 4500 ft
Brutte skyer i en høyde av 7000 ft

METAR: ESCF 250420Z 21016KT 9999 FEW030 SCT045 BKN070 01/M01 Q0991

Tid: 06:46 (04:46 UTC)

Varsel

Denne rapporten ble laget for 17 timer og 16 minutter siden, klokken 11:30 UTC
Varsel gyldig fra 24. klokken 12 UTC til 24. klokken 15 UTC
Vind 12 kt fra Sør-sørøst med vindkast opp mot 22 kt
Sikt 10 km eller mer
Brutte skyer i en høyde av 1500 ft
Midlertidig
fra 24. klokken 12 UTC til 24. klokken 15 UTC
Sikt: 2000 m
Brutte skyer i en høyde av 400 ft
regn, snø

TAF: ESCF 241130Z 2412/2415 15012G22KT 9999 BKN015 TEMPO 2412/2415 2000 RASN BKN004 RMK MIL

Værobservasjoner og værvarsel for over 4000 flyplasser (METAR- og TAF-rapporter).

Tilgjengelige stasjoner er representert av de røde og gule prikkene på kartet.

Hold musepekeren over prikken for å se navnet på stasjonen.

Klikk så for å se værobservasjoner og -varsler.

For å forandre kartet kan du klikke på den grønne knappen med svart kryss for å zoome inn, på den grønne knappen med strek for å zoome ut, eller på de grønne pilene for å se tilstøtende kart.


METAR-TAF: